createdAt,value
2022-08-11T00:02:36.450Z,8.00
2022-08-11T00:05:08.170Z,6.80
2022-08-11T00:07:43.419Z,9.23
2022-08-11T00:10:13.968Z,11.77
2022-08-11T00:12:43.953Z,7.57
2022-08-11T00:15:13.600Z,8.33
2022-08-11T00:17:43.778Z,9.93
2022-08-11T00:20:16.515Z,10.10
2022-08-11T00:22:47.637Z,9.07
2022-08-11T00:25:17.898Z,12.70
2022-08-11T00:27:47.364Z,8.10
2022-08-11T00:30:16.819Z,9.77
2022-08-11T00:32:54.222Z,10.70
2022-08-11T00:35:51.906Z,8.63
2022-08-11T00:38:17.280Z,10.43
2022-08-11T00:40:54.175Z,11.43
2022-08-11T00:43:37.931Z,12.03
2022-08-11T00:46:23.949Z,8.80
2022-08-11T00:49:12.330Z,9.23
2022-08-11T00:52:02.082Z,7.37
2022-08-11T00:55:07.923Z,7.40
2022-08-11T00:58:13.207Z,9.53
2022-08-11T01:01:01.834Z,7.47
2022-08-11T01:04:00.952Z,10.03
2022-08-11T01:06:53.592Z,8.53
2022-08-11T01:09:52.383Z,6.90
2022-08-11T01:12:31.809Z,7.83
2022-08-11T01:15:37.438Z,6.60
2022-08-11T01:18:45.907Z,7.43
2022-08-11T01:21:53.204Z,9.70
2022-08-11T01:25:02.104Z,8.43
2022-08-11T01:28:09.088Z,11.27
2022-08-11T01:31:26.507Z,5.97
2022-08-11T01:34:34.790Z,9.87
2022-08-11T01:37:32.594Z,10.73
2022-08-11T01:40:42.042Z,7.67
2022-08-11T01:44:01.205Z,10.63
2022-08-11T01:46:33.385Z,7.93
2022-08-11T01:50:08.885Z,9.27
2022-08-11T01:52:20.487Z,9.63
2022-08-11T01:55:13.767Z,7.40
2022-08-11T01:57:51.127Z,8.23
2022-08-11T02:00:22.209Z,7.40
2022-08-11T02:02:58.172Z,9.73
2022-08-11T02:05:45.542Z,11.10
2022-08-11T02:08:32.992Z,7.43
2022-08-11T02:11:35.692Z,8.27
2022-08-11T02:14:20.895Z,7.53
2022-08-11T02:16:56.757Z,8.60
2022-08-11T02:19:56.589Z,9.33
2022-08-11T02:22:49.580Z,10.83
2022-08-11T02:25:27.772Z,10.13
2022-08-11T02:28:03.644Z,13.80
2022-08-11T02:30:38.248Z,13.77
2022-08-11T02:33:25.412Z,11.33
2022-08-11T02:36:04.841Z,14.93
2022-08-11T02:38:43.406Z,10.27
2022-08-11T02:41:40.094Z,10.40
2022-08-11T02:44:22.307Z,10.67
2022-08-11T02:46:58.437Z,11.23
2022-08-11T02:50:02.671Z,11.30
2022-08-11T02:52:42.234Z,13.13
2022-08-11T02:55:56.589Z,14.97
2022-08-11T02:58:17.695Z,12.63
2022-08-11T03:00:57.158Z,11.87
2022-08-11T03:03:33.228Z,11.93
2022-08-11T03:06:11.482Z,11.63
2022-08-11T03:08:52.799Z,10.83
2022-08-11T03:12:11.193Z,9.70
2022-08-11T03:15:06.567Z,13.07
2022-08-11T03:17:42.233Z,12.53
2022-08-11T03:20:33.110Z,10.93
2022-08-11T03:23:19.997Z,13.20
2022-08-11T03:25:54.531Z,10.03
2022-08-11T03:28:36.969Z,11.03
2022-08-11T03:31:24.841Z,12.17
2022-08-11T03:34:07.860Z,11.40
2022-08-11T03:37:17.671Z,9.80
2022-08-11T03:40:00.246Z,12.33
2022-08-11T03:42:34.054Z,11.73
2022-08-11T03:45:17.366Z,11.00
2022-08-11T03:47:58.339Z,9.00
2022-08-11T03:50:40.929Z,9.70
2022-08-11T03:53:18.545Z,11.20
2022-08-11T03:56:26.058Z,11.20
2022-08-11T03:59:18.550Z,10.27
2022-08-11T04:02:10.821Z,10.40
2022-08-11T04:05:13.305Z,11.10
2022-08-11T04:08:18.756Z,10.30
2022-08-11T04:11:11.125Z,7.67
2022-08-11T04:14:31.353Z,9.20
2022-08-11T04:17:25.278Z,8.70
2022-08-11T04:20:30.148Z,12.57
2022-08-11T04:24:33.031Z,10.97
2022-08-11T04:27:07.456Z,9.77
2022-08-11T04:30:03.719Z,11.57
2022-08-11T04:32:58.180Z,9.20
2022-08-11T04:35:50.221Z,11.67
2022-08-11T04:38:59.130Z,9.27
2022-08-11T04:42:21.671Z,8.20
2022-08-11T04:45:26.244Z,8.80
2022-08-11T04:48:57.766Z,8.90
2022-08-11T04:52:06.795Z,9.67
2022-08-11T04:55:12.632Z,8.47
2022-08-11T04:58:10.295Z,9.30
2022-08-11T05:01:14.946Z,6.57
2022-08-11T05:04:28.109Z,9.00
2022-08-11T05:07:21.626Z,8.37
2022-08-11T05:10:08.045Z,12.30
2022-08-11T05:12:44.374Z,9.33
2022-08-11T05:15:32.317Z,7.83
2022-08-11T05:18:35.386Z,5.67
2022-08-11T05:21:26.110Z,5.20
2022-08-11T05:24:26.930Z,6.90
2022-08-11T05:27:14.131Z,6.50
2022-08-11T05:30:04.456Z,9.17
2022-08-11T05:33:00.987Z,7.53
2022-08-11T05:36:02.316Z,7.47
2022-08-11T05:38:45.624Z,6.83
2022-08-11T05:41:33.758Z,5.03
2022-08-11T05:44:22.701Z,6.43
2022-08-11T05:47:09.452Z,4.90
2022-08-11T05:49:56.765Z,4.77
2022-08-11T05:52:49.266Z,4.30
2022-08-11T05:55:58.404Z,5.77
2022-08-11T05:58:45.789Z,6.03
2022-08-11T06:01:18.030Z,9.27
2022-08-11T06:04:10.582Z,6.30
2022-08-11T06:06:45.298Z,7.00
2022-08-11T06:09:15.839Z,5.80
2022-08-11T06:11:45.212Z,3.67
2022-08-11T06:14:16.543Z,4.90
2022-08-11T06:16:49.088Z,5.27
2022-08-11T06:19:23.149Z,4.80
2022-08-11T06:21:53.220Z,3.17
2022-08-11T06:24:21.809Z,4.40
2022-08-11T06:27:11.917Z,7.97
2022-08-11T06:29:54.796Z,3.57
2022-08-11T06:32:27.131Z,4.67
2022-08-11T06:35:17.873Z,5.33
2022-08-11T06:37:58.638Z,3.73
2022-08-11T06:40:36.938Z,3.67
2022-08-11T06:43:12.837Z,3.20
2022-08-11T06:45:52.506Z,3.40
2022-08-11T06:48:24.270Z,2.93
2022-08-11T06:51:11.426Z,4.87
2022-08-11T06:53:56.311Z,5.23
2022-08-11T06:57:12.539Z,3.10
2022-08-11T07:00:01.617Z,2.43
2022-08-11T07:02:35.308Z,3.27
2022-08-11T07:05:08.633Z,3.23
2022-08-11T07:08:33.538Z,2.73
2022-08-11T07:11:39.247Z,3.00
2022-08-11T07:14:26.709Z,4.33
2022-08-11T07:16:55.201Z,3.93
2022-08-11T07:19:45.502Z,3.97
2022-08-11T07:22:32.242Z,2.77
2022-08-11T07:25:21.567Z,2.03
2022-08-11T07:28:12.470Z,3.37
2022-08-11T07:30:43.389Z,2.50
2022-08-11T07:34:04.855Z,2.90
2022-08-11T07:36:06.541Z,2.90
2022-08-11T07:38:47.356Z,2.43
2022-08-11T07:41:18.222Z,2.37
2022-08-11T07:43:49.672Z,3.17
2022-08-11T07:46:37.285Z,3.70
2022-08-11T07:49:25.964Z,2.73
2022-08-11T07:52:14.646Z,3.30
2022-08-11T07:54:43.928Z,1.63
2022-08-11T07:57:59.486Z,1.77
2022-08-11T08:00:42.435Z,4.03
2022-08-11T08:03:28.548Z,1.93
2022-08-11T08:06:35.479Z,1.87
2022-08-11T08:09:22.154Z,3.20
2022-08-11T08:12:08.405Z,2.20
2022-08-11T08:14:56.504Z,2.20
2022-08-11T08:17:42.491Z,3.53
2022-08-11T08:20:14.404Z,4.10
2022-08-11T08:22:48.528Z,4.50
2022-08-11T08:25:18.908Z,3.90
2022-08-11T08:27:48.249Z,2.40
2022-08-11T08:30:33.899Z,2.08
2022-08-11T08:33:02.937Z,2.75
2022-08-11T08:35:33.081Z,4.43
2022-08-11T08:38:01.936Z,4.60
2022-08-11T08:40:31.682Z,2.25
2022-08-11T08:43:04.490Z,6.43
2022-08-11T08:45:37.145Z,1.83
2022-08-11T08:48:12.146Z,7.22
2022-08-11T08:51:03.324Z,2.78
2022-08-11T08:53:36.516Z,1.40
2022-08-11T08:56:08.505Z,1.50
2022-08-11T08:58:39.819Z,2.78
2022-08-11T09:01:10.951Z,3.65
2022-08-11T09:04:04.807Z,4.75
2022-08-11T09:06:32.278Z,2.20
2022-08-11T09:09:00.767Z,3.53
2022-08-11T09:11:47.874Z,2.25
2022-08-11T09:14:16.680Z,2.05
2022-08-11T09:16:45.468Z,1.90
2022-08-11T09:19:17.457Z,2.42
2022-08-11T09:22:11.431Z,2.50
2022-08-11T09:24:58.972Z,3.72
2022-08-11T09:27:29.395Z,2.83
2022-08-11T09:29:58.049Z,2.67
2022-08-11T09:32:28.925Z,1.50
2022-08-11T09:34:57.906Z,2.17
2022-08-11T09:37:54.172Z,3.03
2022-08-11T09:40:33.563Z,1.52
2022-08-11T09:43:23.802Z,2.35
2022-08-11T09:45:54.271Z,1.40
2022-08-11T09:48:26.057Z,1.35
2022-08-11T09:50:56.556Z,1.10
2022-08-11T09:53:36.756Z,2.15
2022-08-11T09:56:30.818Z,2.60
2022-08-11T09:59:01.077Z,2.75
2022-08-11T10:01:32.830Z,1.40
2022-08-11T10:04:04.987Z,1.70
2022-08-11T10:06:54.264Z,1.67
2022-08-11T10:09:26.115Z,1.25
2022-08-11T10:11:59.219Z,2.00
2022-08-11T10:14:49.859Z,0.68
2022-08-11T10:17:21.944Z,2.90
2022-08-11T10:20:05.465Z,4.15
2022-08-11T10:22:53.430Z,1.23
2022-08-11T10:25:40.908Z,1.40
2022-08-11T10:28:17.444Z,1.55
2022-08-11T10:31:18.200Z,5.32
2022-08-11T10:34:03.378Z,2.30
2022-08-11T10:36:33.726Z,0.60
2022-08-11T10:39:04.176Z,0.70
2022-08-11T10:42:03.462Z,1.50
2022-08-11T10:44:39.845Z,1.38
2022-08-11T10:47:30.246Z,1.73
2022-08-11T10:50:16.718Z,0.93
2022-08-11T10:53:05.361Z,2.53
2022-08-11T10:55:51.965Z,1.52
2022-08-11T10:58:37.863Z,1.70
2022-08-11T11:01:06.442Z,1.40
2022-08-11T11:03:37.534Z,1.85
2022-08-11T11:06:29.266Z,1.70
2022-08-11T11:09:05.546Z,1.98
2022-08-11T11:11:56.235Z,2.53
2022-08-11T11:14:52.711Z,2.58
2022-08-11T11:17:48.583Z,1.67
2022-08-11T11:20:36.039Z,3.60
2022-08-11T11:23:09.261Z,2.33
2022-08-11T11:26:07.355Z,4.22
2022-08-11T11:29:20.360Z,1.20
2022-08-11T11:32:00.178Z,1.85
2022-08-11T11:34:58.310Z,1.20
2022-08-11T11:37:30.415Z,1.02
2022-08-11T11:39:59.436Z,0.80
2022-08-11T11:42:28.355Z,1.33
2022-08-11T11:44:59.433Z,0.75
2022-08-11T11:47:33.743Z,3.45
2022-08-11T11:50:02.039Z,4.90
2022-08-11T11:52:31.969Z,1.23
2022-08-11T11:55:01.151Z,1.25
2022-08-11T11:57:58.700Z,2.28
2022-08-11T12:00:47.315Z,1.00
2022-08-11T12:03:16.236Z,2.67
2022-08-11T12:05:45.855Z,4.25
2022-08-11T12:08:17.174Z,2.35
2022-08-11T12:10:48.086Z,1.30
2022-08-11T12:13:36.011Z,1.85
2022-08-11T12:16:33.612Z,1.20
2022-08-11T12:18:56.668Z,1.65
2022-08-11T12:21:26.200Z,1.73
2022-08-11T12:24:15.032Z,4.45
2022-08-11T12:27:15.898Z,3.60
2022-08-11T12:29:52.798Z,2.55
2022-08-11T12:32:25.379Z,1.15
2022-08-11T12:34:58.057Z,1.17
2022-08-11T12:37:31.762Z,1.17
2022-08-11T12:40:42.728Z,4.78
2022-08-11T12:43:38.005Z,0.93
2022-08-11T12:46:10.148Z,3.15
2022-08-11T12:49:03.097Z,1.38
2022-08-11T12:52:12.324Z,3.30
2022-08-11T12:54:51.892Z,1.45
2022-08-11T12:57:51.276Z,5.88
2022-08-11T13:00:38.569Z,0.80
2022-08-11T13:03:26.143Z,1.52
2022-08-11T13:05:56.841Z,5.60
2022-08-11T13:08:26.514Z,0.70
2022-08-11T13:11:14.269Z,2.35
2022-08-11T13:13:54.215Z,1.27
2022-08-11T13:16:27.665Z,3.50
2022-08-11T13:18:56.513Z,1.30
2022-08-11T13:21:25.593Z,0.77
2022-08-11T13:24:00.349Z,2.55
2022-08-11T13:26:47.000Z,1.75
2022-08-11T13:29:21.131Z,2.85
2022-08-11T13:31:51.005Z,2.50
2022-08-11T13:34:20.663Z,2.10
2022-08-11T13:36:52.889Z,2.17
2022-08-11T13:39:25.065Z,1.75
2022-08-11T13:41:56.455Z,2.58
2022-08-11T13:44:28.436Z,0.95
2022-08-11T13:47:01.370Z,1.05
2022-08-11T13:49:32.053Z,3.65
2022-08-11T13:52:00.880Z,0.85
2022-08-11T13:54:35.186Z,5.38
2022-08-11T13:57:09.047Z,2.10
2022-08-11T13:59:51.822Z,2.65
2022-08-11T14:02:30.203Z,2.55
2022-08-11T14:05:02.509Z,1.40
2022-08-11T14:07:36.497Z,2.20
2022-08-11T14:10:06.942Z,1.02
2022-08-11T14:12:55.431Z,2.17
2022-08-11T14:15:29.781Z,1.25
2022-08-11T14:18:03.323Z,2.33
2022-08-11T14:20:54.907Z,2.63
2022-08-11T14:23:27.617Z,0.95
2022-08-11T14:26:14.280Z,2.97
2022-08-11T14:28:45.050Z,1.48
2022-08-11T14:31:16.447Z,0.98
2022-08-11T14:34:00.685Z,1.23
2022-08-11T14:36:38.948Z,0.95
2022-08-11T14:39:11.672Z,1.50
2022-08-11T14:42:11.715Z,6.65
2022-08-11T14:45:00.681Z,1.75
2022-08-11T14:47:34.652Z,1.85
2022-08-11T14:50:11.813Z,2.20
2022-08-11T14:52:45.064Z,2.53
2022-08-11T14:55:32.382Z,1.45
2022-08-11T14:58:01.801Z,2.15
2022-08-11T15:00:30.976Z,1.42
2022-08-11T15:03:13.407Z,1.92
2022-08-11T15:05:55.729Z,1.88
2022-08-11T15:08:42.694Z,1.30
2022-08-11T15:11:27.908Z,3.08
2022-08-11T15:13:58.092Z,2.97
2022-08-11T15:16:41.277Z,1.63
2022-08-11T15:19:14.464Z,3.33
2022-08-11T15:22:00.728Z,2.25
2022-08-11T15:24:30.616Z,2.55
2022-08-11T15:27:19.280Z,2.10
2022-08-11T15:30:06.270Z,1.27
2022-08-11T15:32:53.498Z,1.73
2022-08-11T15:35:41.824Z,4.40
2022-08-11T15:38:13.705Z,4.13
2022-08-11T15:41:01.810Z,2.50
2022-08-11T15:43:57.198Z,3.10
2022-08-11T15:46:31.453Z,1.73
2022-08-11T15:49:02.625Z,2.13
2022-08-11T15:51:37.325Z,6.63
2022-08-11T15:54:09.602Z,4.15
2022-08-11T15:56:42.351Z,3.45
2022-08-11T15:59:41.959Z,1.30
2022-08-11T16:02:33.004Z,2.25
2022-08-11T16:05:07.002Z,2.78
2022-08-11T16:07:40.542Z,2.22
2022-08-11T16:10:18.998Z,3.38
2022-08-11T16:13:20.434Z,1.17
2022-08-11T16:16:09.362Z,3.00
2022-08-11T16:18:44.070Z,5.78
2022-08-11T16:21:26.115Z,3.45
2022-08-11T16:24:08.591Z,3.40
2022-08-11T16:27:08.818Z,3.22
2022-08-11T16:29:31.723Z,4.47
2022-08-11T16:32:20.285Z,1.98
2022-08-11T16:35:10.080Z,3.25
2022-08-11T16:37:56.917Z,6.30
2022-08-11T16:40:27.294Z,10.65
2022-08-11T16:43:14.758Z,7.28
2022-08-11T16:46:01.657Z,5.03
2022-08-11T16:48:35.376Z,3.47
2022-08-11T16:51:06.874Z,3.47
2022-08-11T16:54:00.104Z,1.67
2022-08-11T16:56:29.400Z,2.25
2022-08-11T16:59:16.695Z,2.33
2022-08-11T17:01:53.408Z,3.30
2022-08-11T17:04:50.096Z,5.25
2022-08-11T17:07:42.434Z,8.20
2022-08-11T17:10:50.877Z,3.58
2022-08-11T17:13:29.318Z,4.35
2022-08-11T17:16:08.014Z,2.13
2022-08-11T17:18:43.054Z,4.37
2022-08-11T17:21:16.078Z,3.00
2022-08-11T17:23:47.135Z,1.90
2022-08-11T17:26:26.287Z,4.10
2022-08-11T17:29:00.324Z,2.40
2022-08-11T17:31:47.707Z,6.40
2022-08-11T17:34:34.070Z,3.10
2022-08-11T17:37:04.138Z,2.57
2022-08-11T17:39:35.641Z,2.30
2022-08-11T17:42:21.872Z,1.87
2022-08-11T17:45:10.390Z,1.60
2022-08-11T17:47:57.147Z,2.90
2022-08-11T17:50:26.386Z,4.23
2022-08-11T17:53:12.810Z,4.13
2022-08-11T17:55:59.737Z,3.53
2022-08-11T17:58:55.139Z,5.40
2022-08-11T18:01:26.189Z,2.30
2022-08-11T18:03:58.267Z,3.97
2022-08-11T18:06:33.763Z,1.83
2022-08-11T18:09:22.941Z,3.60
2022-08-11T18:12:12.739Z,1.73
2022-08-11T18:15:02.172Z,2.83
2022-08-11T18:17:49.644Z,4.37
2022-08-11T18:20:36.634Z,4.47
2022-08-11T18:23:46.017Z,3.57
2022-08-11T18:26:35.846Z,3.77
2022-08-11T18:29:23.285Z,2.10
2022-08-11T18:32:21.940Z,4.63
2022-08-11T18:35:16.008Z,4.67
2022-08-11T18:38:05.660Z,2.67
2022-08-11T18:40:54.195Z,2.57
2022-08-11T18:43:42.630Z,7.33
2022-08-11T18:46:31.734Z,8.30
2022-08-11T18:49:21.949Z,15.37
2022-08-11T18:52:12.535Z,7.90
2022-08-11T18:55:02.017Z,3.90
2022-08-11T18:57:54.306Z,4.37
2022-08-11T19:00:42.251Z,5.20
2022-08-11T19:03:31.228Z,9.67
2022-08-11T19:06:39.079Z,5.33
2022-08-11T19:09:35.277Z,3.27
2022-08-11T19:12:32.858Z,4.43
2022-08-11T19:15:20.897Z,3.83
2022-08-11T19:18:08.430Z,3.17
2022-08-11T19:20:55.934Z,5.07
2022-08-11T19:26:32.255Z,4.67
2022-08-11T19:30:07.992Z,4.40
2022-08-11T19:32:45.692Z,4.07
2022-08-11T19:35:53.813Z,5.27
2022-08-11T19:39:03.478Z,7.00
2022-08-11T19:41:57.935Z,4.07
2022-08-11T19:44:53.880Z,5.43
2022-08-11T19:47:44.552Z,4.57
2022-08-11T19:50:37.902Z,4.27
2022-08-11T19:53:33.529Z,3.53
2022-08-11T19:56:37.518Z,3.67
2022-08-11T19:59:40.970Z,6.60
2022-08-11T20:02:33.023Z,2.77
2022-08-11T20:05:34.369Z,3.73
2022-08-11T20:12:27.059Z,4.77
2022-08-11T20:15:26.807Z,4.87
2022-08-11T20:18:21.327Z,5.93
2022-08-11T20:21:28.029Z,6.67
2022-08-11T20:25:03.464Z,3.73
2022-08-11T20:28:03.486Z,4.33
2022-08-11T20:31:13.883Z,5.10
2022-08-11T20:34:30.779Z,3.10
2022-08-11T20:37:47.671Z,4.20
2022-08-11T20:40:54.360Z,10.83
2022-08-11T20:44:05.531Z,6.47
2022-08-11T20:47:12.991Z,5.83
2022-08-11T20:50:07.107Z,5.17
2022-08-11T20:52:58.964Z,4.07
2022-08-11T20:55:53.232Z,5.07
2022-08-11T20:59:17.854Z,5.00
2022-08-11T21:02:09.818Z,6.13
2022-08-11T21:05:02.841Z,5.50
2022-08-11T21:08:06.560Z,7.53
2022-08-11T21:10:58.333Z,7.27
2022-08-11T21:14:11.300Z,9.37
2022-08-11T21:17:26.980Z,9.53
2022-08-11T21:20:24.212Z,7.20
2022-08-11T21:23:24.175Z,6.97
2022-08-11T21:26:21.816Z,6.97
2022-08-11T21:29:15.800Z,6.40
2022-08-11T21:32:23.169Z,10.67
2022-08-11T21:35:13.825Z,5.93
2022-08-11T21:38:03.097Z,3.67
2022-08-11T21:40:56.105Z,8.67
2022-08-11T21:43:52.422Z,5.57
2022-08-11T21:46:43.062Z,8.20
2022-08-11T21:49:35.211Z,6.67
2022-08-11T21:52:31.410Z,5.67
2022-08-11T21:55:22.033Z,6.87
2022-08-11T21:58:17.123Z,6.33
2022-08-11T22:01:06.942Z,6.47
2022-08-11T22:04:13.126Z,7.67
2022-08-11T22:07:07.818Z,5.73
2022-08-11T22:09:59.440Z,8.07
2022-08-11T22:12:52.711Z,5.93
2022-08-11T22:15:52.813Z,6.77
2022-08-11T22:18:52.960Z,3.97
2022-08-11T22:22:03.625Z,4.67
2022-08-11T22:24:58.331Z,5.77
2022-08-11T22:27:49.113Z,4.47
2022-08-11T22:30:41.475Z,4.27
2022-08-11T22:33:35.779Z,5.57
2022-08-11T22:36:32.226Z,6.77
2022-08-11T22:39:26.996Z,6.00
2022-08-11T22:42:33.457Z,4.77
2022-08-11T22:45:23.289Z,4.93
2022-08-11T22:48:16.018Z,4.13
2022-08-11T22:51:04.300Z,4.60
2022-08-11T22:53:58.092Z,5.67
2022-08-11T22:56:51.934Z,4.57
2022-08-11T22:59:46.258Z,4.97
2022-08-11T23:02:41.374Z,7.83
2022-08-11T23:05:46.465Z,4.50
2022-08-11T23:08:39.435Z,5.23
2022-08-11T23:12:06.403Z,7.70
2022-08-11T23:14:45.325Z,4.80
2022-08-11T23:17:33.265Z,4.63
2022-08-11T23:20:35.862Z,4.23
2022-08-11T23:23:36.666Z,4.43
2022-08-11T23:26:24.907Z,5.47
2022-08-11T23:29:12.780Z,6.33
2022-08-11T23:32:02.709Z,3.83
2022-08-11T23:35:03.689Z,5.50
2022-08-11T23:38:11.157Z,6.07
2022-08-11T23:40:59.104Z,6.57
2022-08-11T23:43:47.056Z,5.23
2022-08-11T23:46:35.326Z,6.00
2022-08-11T23:49:26.778Z,7.47
2022-08-11T23:52:16.644Z,6.10
2022-08-11T23:55:05.211Z,5.37
2022-08-11T23:57:52.982Z,4.67
